sensor_id;sensor_type;location;lat;lon;timestamp;pressure;altitude;pressure_sealevel;temperature;humidity
48386;BME280;34644;47.964;7.982;2024-01-15T00:02:07;95769.19;;;15.10;47.93
48386;BME280;34644;47.964;7.982;2024-01-15T00:09:08;95757.19;;;15.13;47.99
48386;BME280;34644;47.964;7.982;2024-01-15T00:16:08;95746.88;;;15.11;47.81
48386;BME280;34644;47.964;7.982;2024-01-15T00:23:08;95722.47;;;15.09;47.89
48386;BME280;34644;47.964;7.982;2024-01-15T00:30:08;95716.88;;;15.11;47.92
48386;BME280;34644;47.964;7.982;2024-01-15T00:37:09;95705.50;;;15.10;48.06
48386;BME280;34644;47.964;7.982;2024-01-15T00:44:09;95706.28;;;15.11;48.13
48386;BME280;34644;47.964;7.982;2024-01-15T00:51:09;95695.16;;;15.09;48.20
48386;BME280;34644;47.964;7.982;2024-01-15T00:58:10;95698.59;;;15.09;48.05
48386;BME280;34644;47.964;7.982;2024-01-15T01:05:10;95697.25;;;15.12;48.23
48386;BME280;34644;47.964;7.982;2024-01-15T01:12:10;95683.44;;;15.10;48.25
48386;BME280;34644;47.964;7.982;2024-01-15T01:19:10;95677.38;;;15.09;48.41
48386;BME280;34644;47.964;7.982;2024-01-15T01:26:12;95673.66;;;15.10;48.24
48386;BME280;34644;47.964;7.982;2024-01-15T01:33:15;95682.69;;;15.09;48.36
48386;BME280;34644;47.964;7.982;2024-01-15T01:40:15;95678.97;;;15.10;48.16
48386;BME280;34644;47.964;7.982;2024-01-15T01:47:15;95663.59;;;15.07;48.35
48386;BME280;34644;47.964;7.982;2024-01-15T01:54:15;95660.94;;;15.07;48.21
48386;BME280;34644;47.964;7.982;2024-01-15T02:01:16;95662.00;;;15.06;48.36
48386;BME280;34644;47.964;7.982;2024-01-15T02:08:17;95662.78;;;15.07;48.14
48386;BME280;34644;47.964;7.982;2024-01-15T02:15:18;95660.94;;;15.07;48.18
48386;BME280;34644;47.964;7.982;2024-01-15T02:22:18;95653.00;;;15.07;48.25
48386;BME280;34644;47.964;7.982;2024-01-15T02:29:18;95649.53;;;15.07;48.23
48386;BME280;34644;47.964;7.982;2024-01-15T02:36:19;95645.31;;;15.06;48.31
48386;BME280;34644;47.964;7.982;2024-01-15T02:43:19;95645.31;;;15.06;48.39
48386;BME280;34644;47.964;7.982;2024-01-15T02:50:19;95632.31;;;15.04;48.58
48386;BME280;34644;47.964;7.982;2024-01-15T02:57:20;95640.78;;;15.06;48.59
48386;BME280;34644;47.964;7.982;2024-01-15T03:04:20;95641.84;;;15.05;48.60
48386;BME280;34644;47.964;7.982;2024-01-15T03:11:20;95629.38;;;15.06;48.43
48386;BME280;34644;47.964;7.982;2024-01-15T03:18:20;95634.69;;;15.06;48.57
48386;BME280;34644;47.964;7.982;2024-01-15T03:25:20;95643.44;;;15.06;48.68
48386;BME280;34644;47.964;7.982;2024-01-15T03:32:21;95638.13;;;15.06;48.65
48386;BME280;34644;47.964;7.982;2024-01-15T03:39:21;95626.75;;;15.06;48.56
48386;BME280;34644;47.964;7.982;2024-01-15T03:46:21;95624.09;;;15.06;48.67
48386;BME280;34644;47.964;7.982;2024-01-15T03:53:22;95624.38;;;15.04;48.56
48386;BME280;34644;47.964;7.982;2024-01-15T04:00:22;95625.44;;;15.03;48.64
48386;BME280;34644;47.964;7.982;2024-01-15T04:07:22;95608.16;;;15.06;48.46
48386;BME280;34644;47.964;7.982;2024-01-15T04:14:22;95605.78;;;15.04;48.68
48386;BME280;34644;47.964;7.982;2024-01-15T04:21:23;95610.56;;;15.02;48.75
48386;BME280;34644;47.964;7.982;2024-01-15T04:28:23;95614.03;;;15.02;48.72
48386;BME280;34644;47.964;7.982;2024-01-15T04:35:24;95616.41;;;15.04;48.68
48386;BME280;34644;47.964;7.982;2024-01-15T04:42:24;95619.63;;;15.01;48.76
48386;BME280;34644;47.964;7.982;2024-01-15T04:49:24;95627.03;;;15.04;48.81
48386;BME280;34644;47.964;7.982;2024-01-15T04:56:27;95629.09;;;15.07;49.38
48386;BME280;34644;47.964;7.982;2024-01-15T05:03:27;95631.19;;;15.10;49.34
48386;BME280;34644;47.964;7.982;2024-01-15T05:10:27;95639.66;;;15.12;49.35
48386;BME280;34644;47.964;7.982;2024-01-15T05:17:28;95638.59;;;15.13;49.42
48386;BME280;34644;47.964;7.982;2024-01-15T05:24:28;95642.31;;;15.12;49.23
48386;BME280;34644;47.964;7.982;2024-01-15T05:31:28;95633.28;;;15.13;49.24
48386;BME280;34644;47.964;7.982;2024-01-15T05:38:28;95631.13;;;15.15;49.26
48386;BME280;34644;47.964;7.982;2024-01-15T05:45:30;95617.63;;;15.12;49.22
48386;BME280;34644;47.964;7.982;2024-01-15T05:52:30;95618.91;;;15.14;49.13
48386;BME280;34644;47.964;7.982;2024-01-15T05:59:30;95618.41;;;15.12;49.14
48386;BME280;34644;47.964;7.982;2024-01-15T06:06:32;95617.63;;;15.12;49.15
48386;BME280;34644;47.964;7.982;2024-01-15T06:13:32;95614.69;;;15.13;49.07
48386;BME280;34644;47.964;7.982;2024-01-15T06:20:32;95610.75;;;15.11;48.91
48386;BME280;34644;47.964;7.982;2024-01-15T06:27:33;95604.66;;;15.10;48.80
48386;BME280;34644;47.964;7.982;2024-01-15T06:34:33;95608.88;;;15.11;48.60
48386;BME280;34644;47.964;7.982;2024-01-15T06:41:33;95611.81;;;15.10;48.74
48386;BME280;34644;47.964;7.982;2024-01-15T06:48:34;95603.84;;;15.10;48.70
48386;BME280;34644;47.964;7.982;2024-01-15T06:55:34;95587.91;;;15.10;48.50
48386;BME280;34644;47.964;7.982;2024-01-15T07:02:34;95583.72;;;15.09;48.12
48386;BME280;34644;47.964;7.982;2024-01-15T07:09:34;95580.25;;;15.08;48.13
48386;BME280;34644;47.964;7.982;2024-01-15T07:16:35;95580.78;;;15.10;48.04
48386;BME280;34644;47.964;7.982;2024-01-15T07:23:35;95573.59;;;15.11;47.78
48386;BME280;34644;47.964;7.982;2024-01-15T07:30:35;95559.25;;;15.12;47.74
48386;BME280;34644;47.964;7.982;2024-01-15T07:37:38;95548.63;;;15.12;47.91
48386;BME280;34644;47.964;7.982;2024-01-15T07:44:38;95552.06;;;15.12;47.91
48386;BME280;34644;47.964;7.982;2024-01-15T07:51:39;95556.81;;;15.15;47.66
48386;BME280;34644;47.964;7.982;2024-01-15T07:58:40;95554.72;;;15.12;47.87
48386;BME280;34644;47.964;7.982;2024-01-15T08:05:40;95571.44;;;15.13;47.79
48386;BME280;34644;47.964;7.982;2024-01-15T08:12:41;95572.25;;;15.13;47.78
48386;BME280;34644;47.964;7.982;2024-01-15T08:19:41;95548.63;;;15.12;47.72
48386;BME280;34644;47.964;7.982;2024-01-15T08:26:41;95542.53;;;15.11;47.71
48386;BME280;34644;47.964;7.982;2024-01-15T08:33:41;95545.97;;;15.12;47.56
48386;BME280;34644;47.964;7.982;2024-01-15T08:40:42;95553.94;;;15.12;47.40
48386;BME280;34644;47.964;7.982;2024-01-15T08:47:42;95539.88;;;15.11;47.44
48386;BME280;34644;47.964;7.982;2024-01-15T08:54:42;95534.84;;;15.10;47.36
48386;BME280;34644;47.964;7.982;2024-01-15T09:01:42;95535.66;;;15.10;47.36
48386;BME280;34644;47.964;7.982;2024-01-15T09:08:43;95537.50;;;15.10;47.16
48386;BME280;34644;47.964;7.982;2024-01-15T09:15:43;95529.81;;;15.08;47.28
48386;BME280;34644;47.964;7.982;2024-01-15T09:22:43;95513.91;;;15.08;47.24
48386;BME280;34644;47.964;7.982;2024-01-15T09:29:44;95499.09;;;15.07;47.38
48386;BME280;34644;47.964;7.982;2024-01-15T09:36:46;95480.22;;;15.09;47.29
48386;BME280;34644;47.964;7.982;2024-01-15T09:43:47;95468.78;;;15.08;47.19
48386;BME280;34644;47.964;7.982;2024-01-15T09:50:48;95474.09;;;15.08;47.13
48386;BME280;34644;47.964;7.982;2024-01-15T09:57:49;95484.22;;;15.06;47.22
48386;BME280;34644;47.964;7.982;2024-01-15T10:04:50;95489.53;;;15.06;47.16
48386;BME280;34644;47.964;7.982;2024-01-15T10:11:50;95482.16;;;15.03;47.05
48386;BME280;34644;47.964;7.982;2024-01-15T10:18:50;95491.19;;;15.02;46.98
48386;BME280;34644;47.964;7.982;2024-01-15T10:25:51;95494.94;;;15.01;47.04
48386;BME280;34644;47.964;7.982;2024-01-15T10:32:58;95492.66;;;14.94;47.16
48386;BME280;34644;47.964;7.982;2024-01-15T10:40:01;95494.69;;;14.97;47.04
48386;BME280;34644;47.964;7.982;2024-01-15T10:47:01;95488.59;;;14.97;47.08
48386;BME280;34644;47.964;7.982;2024-01-15T10:54:01;95496.28;;;14.98;46.92
48386;BME280;34644;47.964;7.982;2024-01-15T11:01:02;95501.28;;;15.00;46.95
48386;BME280;34644;47.964;7.982;2024-01-15T11:08:02;95508.47;;;14.99;46.60
48386;BME280;34644;47.964;7.982;2024-01-15T11:15:05;95519.88;;;15.00;46.80
48386;BME280;34644;47.964;7.982;2024-01-15T11:22:09;95516.19;;;14.96;47.00
48386;BME280;34644;47.964;7.982;2024-01-15T11:29:10;95514.66;;;14.95;46.76
48386;BME280;34644;47.964;7.982;2024-01-15T11:43:47;95506.91;;;14.98;46.85
48386;BME280;34644;47.964;7.982;2024-01-15T11:50:48;95499.13;;;15.02;46.61
48386;BME280;34644;47.964;7.982;2024-01-15T11:57:52;95513.22;;;15.02;47.02
48386;BME280;34644;47.964;7.982;2024-01-15T12:04:54;95521.66;;;15.05;47.21
48386;BME280;34644;47.964;7.982;2024-01-15T12:11:57;95513.41;;;15.06;47.12
48386;BME280;34644;47.964;7.982;2024-01-15T12:19:00;95489.03;;;15.04;47.18
48386;BME280;34644;47.964;7.982;2024-01-15T12:26:01;95473.63;;;15.06;47.47
48386;BME280;34644;47.964;7.982;2024-01-15T12:33:02;95434.81;;;15.10;47.65
48386;BME280;34644;47.964;7.982;2024-01-15T12:40:04;95457.41;;;15.08;47.67
48386;BME280;34644;47.964;7.982;2024-01-15T12:47:06;95467.72;;;15.09;47.69
48386;BME280;34644;47.964;7.982;2024-01-15T12:54:07;95469.09;;;15.07;47.92
48386;BME280;34644;47.964;7.982;2024-01-15T13:01:07;95471.75;;;15.07;48.06
48386;BME280;34644;47.964;7.982;2024-01-15T13:08:07;95464.06;;;15.05;47.87
48386;BME280;34644;47.964;7.982;2024-01-15T13:15:08;95467.25;;;15.07;47.98
48386;BME280;34644;47.964;7.982;2024-01-15T13:22:12;95476.25;;;15.06;47.89
48386;BME280;34644;47.964;7.982;2024-01-15T13:29:14;95478.72;;;15.02;48.14
48386;BME280;34644;47.964;7.982;2024-01-15T13:36:15;95489.53;;;15.06;48.00
48386;BME280;34644;47.964;7.982;2024-01-15T13:43:15;95503.88;;;15.05;47.80
48386;BME280;34644;47.964;7.982;2024-01-15T13:50:15;95514.78;;;15.04;47.88
48386;BME280;34644;47.964;7.982;2024-01-15T13:57:16;95523.00;;;15.02;47.87
48386;BME280;34644;47.964;7.982;2024-01-15T14:04:16;95529.41;;;15.01;47.72
48386;BME280;34644;47.964;7.982;2024-01-15T14:11:16;95523.31;;;15.00;47.75
48386;BME280;34644;47.964;7.982;2024-01-15T14:18:17;95541.09;;;15.00;47.66
48386;BME280;34644;47.964;7.982;2024-01-15T14:25:17;95552.19;;;15.02;47.75
48386;BME280;34644;47.964;7.982;2024-01-15T14:32:17;95570.78;;;15.02;47.94
48386;BME280;34644;47.964;7.982;2024-01-15T14:39:17;95589.91;;;14.99;47.89
48386;BME280;34644;47.964;7.982;2024-01-15T14:46:18;95599.19;;;15.01;47.89
48386;BME280;34644;47.964;7.982;2024-01-15T14:53:18;95607.44;;;15.00;48.17
48386;BME280;34644;47.964;7.982;2024-01-15T15:00:18;95608.50;;;14.99;48.06
48386;BME280;34644;47.964;7.982;2024-01-15T15:07:18;95595.22;;;14.99;47.96
48386;BME280;34644;47.964;7.982;2024-01-15T15:14:19;95610.09;;;15.00;47.96
48386;BME280;34644;47.964;7.982;2024-01-15T15:21:19;95606.94;;;14.98;47.96
48386;BME280;34644;47.964;7.982;2024-01-15T15:28:19;95632.16;;;14.95;48.04
48386;BME280;34644;47.964;7.982;2024-01-15T15:35:19;95648.38;;;14.94;48.06
48386;BME280;34644;47.964;7.982;2024-01-15T15:42:20;95666.94;;;14.94;48.04
48386;BME280;34644;47.964;7.982;2024-01-15T15:49:21;95659.53;;;14.91;48.02
48386;BME280;34644;47.964;7.982;2024-01-15T15:56:21;95659.81;;;14.89;48.09
48386;BME280;34644;47.964;7.982;2024-01-15T16:03:21;95663.00;;;14.91;47.99
48386;BME280;34644;47.964;7.982;2024-01-15T16:10:21;95672.53;;;14.92;47.61
48386;BME280;34644;47.964;7.982;2024-01-15T16:17:22;95684.44;;;14.95;47.63
48386;BME280;34644;47.964;7.982;2024-01-15T16:24:24;95693.19;;;14.95;47.56
48386;BME280;34644;47.964;7.982;2024-01-15T16:31:25;95704.06;;;14.94;47.47
48386;BME280;34644;47.964;7.982;2024-01-15T16:38:25;95704.88;;;14.94;47.47
48386;BME280;34644;47.964;7.982;2024-01-15T16:45:25;95711.47;;;14.97;47.07
48386;BME280;34644;47.964;7.982;2024-01-15T16:52:26;95724.97;;;15.00;47.44
48386;BME280;34644;47.964;7.982;2024-01-15T16:59:26;95735.00;;;15.04;47.18
48386;BME280;34644;47.964;7.982;2024-01-15T17:06:26;95748.53;;;15.07;47.42
48386;BME280;34644;47.964;7.982;2024-01-15T17:13:26;95763.34;;;15.08;47.41
48386;BME280;34644;47.964;7.982;2024-01-15T17:20:27;95770.81;;;15.06;47.46
48386;BME280;34644;47.964;7.982;2024-01-15T17:27:28;95776.34;;;15.10;47.56
48386;BME280;34644;47.964;7.982;2024-01-15T17:34:28;95792.25;;;15.10;47.67
48386;BME280;34644;47.964;7.982;2024-01-15T17:41:28;95817.47;;;15.12;47.91
48386;BME280;34644;47.964;7.982;2024-01-15T17:48:28;95822.75;;;15.12;48.11
48386;BME280;34644;47.964;7.982;2024-01-15T17:55:31;95845.06;;;15.11;47.90
48386;BME280;34644;47.964;7.982;2024-01-15T18:02:32;95853.81;;;15.12;48.11
48386;BME280;34644;47.964;7.982;2024-01-15T18:09:32;95857.25;;;15.12;48.10
48386;BME280;34644;47.964;7.982;2024-01-15T18:16:32;95877.72;;;15.12;48.32
48386;BME280;34644;47.964;7.982;2024-01-15T18:23:33;95883.31;;;15.10;48.16
48386;BME280;34644;47.964;7.982;2024-01-15T18:30:33;95895.75;;;15.10;48.25
48386;BME280;34644;47.964;7.982;2024-01-15T18:37:34;95910.13;;;15.09;48.40
48386;BME280;34644;47.964;7.982;2024-01-15T18:44:34;95928.41;;;15.10;48.23
48386;BME280;34644;47.964;7.982;2024-01-15T18:51:34;95937.16;;;15.11;48.58
48386;BME280;34644;47.964;7.982;2024-01-15T18:58:34;95949.66;;;15.10;48.28
48386;BME280;34644;47.964;7.982;2024-01-15T19:05:41;95961.31;;;15.09;48.33
48386;BME280;34644;47.964;7.982;2024-01-15T19:12:43;95966.63;;;15.09;48.51
48386;BME280;34644;47.964;7.982;2024-01-15T19:19:43;95961.59;;;15.08;48.29
48386;BME280;34644;47.964;7.982;2024-01-15T19:26:51;95962.38;;;15.08;48.42
48386;BME280;34644;47.964;7.982;2024-01-15T19:33:51;95974.09;;;15.07;48.31
48386;BME280;34644;47.964;7.982;2024-01-15T19:40:51;95977.81;;;15.06;48.23
48386;BME280;34644;47.964;7.982;2024-01-15T19:47:52;95979.41;;;15.07;48.37
48386;BME280;34644;47.964;7.982;2024-01-15T19:54:52;95985.75;;;15.06;48.41
48386;BME280;34644;47.964;7.982;2024-01-15T20:01:52;95990.28;;;15.06;48.36
48386;BME280;34644;47.964;7.982;2024-01-15T20:08:52;96001.19;;;15.04;48.32
48386;BME280;34644;47.964;7.982;2024-01-15T20:15:54;96008.31;;;15.04;48.56
48386;BME280;34644;47.964;7.982;2024-01-15T20:22:54;96024.25;;;15.04;48.84
48386;BME280;34644;47.964;7.982;2024-01-15T20:29:54;96025.56;;;15.06;48.65
48386;BME280;34644;47.964;7.982;2024-01-15T20:36:55;96019.75;;;15.04;48.80
48386;BME280;34644;47.964;7.982;2024-01-15T20:43:55;96023.97;;;15.05;48.70
48386;BME280;34644;47.964;7.982;2024-01-15T20:50:55;96026.63;;;15.05;48.68
48386;BME280;34644;47.964;7.982;2024-01-15T20:57:57;96035.41;;;15.06;48.59
48386;BME280;34644;47.964;7.982;2024-01-15T21:04:58;96038.84;;;15.06;48.45
48386;BME280;34644;47.964;7.982;2024-01-15T21:11:58;96040.19;;;15.04;48.54
48386;BME280;34644;47.964;7.982;2024-01-15T21:18:58;96049.50;;;15.01;48.56
48386;BME280;34644;47.964;7.982;2024-01-15T21:26:01;96055.88;;;15.00;48.47
48386;BME280;34644;47.964;7.982;2024-01-15T21:33:02;96050.56;;;15.00;48.63
48386;BME280;34644;47.964;7.982;2024-01-15T21:40:05;96051.88;;;14.97;48.59
48386;BME280;34644;47.964;7.982;2024-01-15T21:47:10;96056.13;;;14.98;48.63
48386;BME280;34644;47.964;7.982;2024-01-15T21:54:10;96060.38;;;14.99;48.56
48386;BME280;34644;47.964;7.982;2024-01-15T22:01:10;96062.75;;;15.01;48.70
48386;BME280;34644;47.964;7.982;2024-01-15T22:08:10;96062.22;;;14.99;48.76
48386;BME280;34644;47.964;7.982;2024-01-15T22:15:11;96077.88;;;15.00;48.77
48386;BME280;34644;47.964;7.982;2024-01-15T22:22:12;96078.69;;;15.01;48.71
48386;BME280;34644;47.964;7.982;2024-01-15T22:29:13;96082.41;;;15.00;48.73
48386;BME280;34644;47.964;7.982;2024-01-15T22:36:13;96086.91;;;14.99;48.84
48386;BME280;34644;47.964;7.982;2024-01-15T22:43:13;96085.84;;;15.00;48.75
48386;BME280;34644;47.964;7.982;2024-01-15T22:50:13;96085.31;;;14.98;48.70
48386;BME280;34644;47.964;7.982;2024-01-15T22:57:14;96100.97;;;15.00;48.74
48386;BME280;34644;47.964;7.982;2024-01-15T23:04:14;96095.94;;;14.98;48.65
48386;BME280;34644;47.964;7.982;2024-01-15T23:11:14;96097.25;;;14.96;48.71
48386;BME280;34644;47.964;7.982;2024-01-15T23:18:15;96108.69;;;14.96;48.70
48386;BME280;34644;47.964;7.982;2024-01-15T23:25:15;96115.84;;;14.96;48.67
48386;BME280;34644;47.964;7.982;2024-01-15T23:32:15;96112.94;;;14.92;48.90
48386;BME280;34644;47.964;7.982;2024-01-15T23:39:15;96115.31;;;14.94;48.72
48386;BME280;34644;47.964;7.982;2024-01-15T23:46:16;96119.84;;;14.93;48.84
48386;BME280;34644;47.964;7.982;2024-01-15T23:53:18;96133.91;;;14.94;48.63
